sensor_id;sensor_type;location;lat;lon;timestamp;temperature;humidity
21563;DHT22;10942;47.894;11.424;2022-08-21T00:01:21;16.90;99.90
21563;DHT22;10942;47.894;11.424;2022-08-21T00:03:48;16.80;99.90
21563;DHT22;10942;47.894;11.424;2022-08-21T00:06:14;16.70;99.90
21563;DHT22;10942;47.894;11.424;2022-08-21T00:08:40;16.70;99.90
21563;DHT22;10942;47.894;11.424;2022-08-21T00:11:06;16.60;99.90
21563;DHT22;10942;47.894;11.424;2022-08-21T00:13:32;16.60;99.90
21563;DHT22;10942;47.894;11.424;2022-08-21T00:15:58;16.50;99.90
21563;DHT22;10942;47.894;11.424;2022-08-21T00:18:25;16.50;99.90
21563;DHT22;10942;47.894;11.424;2022-08-21T00:20:51;16.50;99.90
21563;DHT22;10942;47.894;11.424;2022-08-21T00:23:18;16.40;99.90
21563;DHT22;10942;47.894;11.424;2022-08-21T00:25:44;16.50;99.90
21563;DHT22;10942;47.894;11.424;2022-08-21T00:28:11;16.40;99.90
21563;DHT22;10942;47.894;11.424;2022-08-21T00:30:38;16.30;99.90
21563;DHT22;10942;47.894;11.424;2022-08-21T00:33:04;16.30;99.90
21563;DHT22;10942;47.894;11.424;2022-08-21T00:35:33;16.30;99.90
21563;DHT22;10942;47.894;11.424;2022-08-21T00:37:59;16.30;99.90
21563;DHT22;10942;47.894;11.424;2022-08-21T00:43:05;16.20;99.90
21563;DHT22;10942;47.894;11.424;2022-08-21T00:45:31;16.20;99.90
21563;DHT22;10942;47.894;11.424;2022-08-21T00:47:57;16.20;99.90
21563;DHT22;10942;47.894;11.424;2022-08-21T00:50:26;16.20;99.90
21563;DHT22;10942;47.894;11.424;2022-08-21T00:52:54;16.10;99.90
21563;DHT22;10942;47.894;11.424;2022-08-21T00:55:21;16.10;99.90
21563;DHT22;10942;47.894;11.424;2022-08-21T00:57:52;16.00;99.90
21563;DHT22;10942;47.894;11.424;2022-08-21T01:00:25;16.00;99.90
21563;DHT22;10942;47.894;11.424;2022-08-21T01:02:54;16.00;99.90
21563;DHT22;10942;47.894;11.424;2022-08-21T01:05:20;16.00;99.90
21563;DHT22;10942;47.894;11.424;2022-08-21T01:07:46;15.90;99.90
21563;DHT22;10942;47.894;11.424;2022-08-21T01:10:12;15.90;99.90
21563;DHT22;10942;47.894;11.424;2022-08-21T01:12:39;15.90;99.90
21563;DHT22;10942;47.894;11.424;2022-08-21T01:15:06;15.80;99.90
21563;DHT22;10942;47.894;11.424;2022-08-21T01:17:33;15.80;99.90
21563;DHT22;10942;47.894;11.424;2022-08-21T01:20:00;15.80;99.90
21563;DHT22;10942;47.894;11.424;2022-08-21T01:22:26;15.80;99.90
21563;DHT22;10942;47.894;11.424;2022-08-21T01:24:52;15.80;99.90
21563;DHT22;10942;47.894;11.424;2022-08-21T04:08:55;14.50;99.90
21563;DHT22;10942;47.894;11.424;2022-08-21T04:11:21;14.20;99.90
21563;DHT22;10942;47.894;11.424;2022-08-21T04:13:47;14.10;99.90
21563;DHT22;10942;47.894;11.424;2022-08-21T04:16:13;14.10;99.90
21563;DHT22;10942;47.894;11.424;2022-08-21T04:18:39;14.00;99.90
21563;DHT22;10942;47.894;11.424;2022-08-21T04:21:06;14.00;99.90
21563;DHT22;10942;47.894;11.424;2022-08-21T04:23:33;14.00;99.90
21563;DHT22;10942;47.894;11.424;2022-08-21T04:25:59;13.90;99.90
21563;DHT22;10942;47.894;11.424;2022-08-21T04:28:26;13.90;99.90
21563;DHT22;10942;47.894;11.424;2022-08-21T04:30:53;13.90;99.90
21563;DHT22;10942;47.894;11.424;2022-08-21T04:33:20;13.90;99.90
21563;DHT22;10942;47.894;11.424;2022-08-21T04:35:47;13.90;99.90
21563;DHT22;10942;47.894;11.424;2022-08-21T04:38:13;13.90;99.90
21563;DHT22;10942;47.894;11.424;2022-08-21T04:43:06;13.80;99.90
21563;DHT22;10942;47.894;11.424;2022-08-21T04:45:39;13.80;99.90
21563;DHT22;10942;47.894;11.424;2022-08-21T04:48:07;13.80;99.90
21563;DHT22;10942;47.894;11.424;2022-08-21T04:50:51;13.80;99.90
21563;DHT22;10942;47.894;11.424;2022-08-21T04:53:36;13.80;99.90
21563;DHT22;10942;47.894;11.424;2022-08-21T04:56:09;13.90;99.90
21563;DHT22;10942;47.894;11.424;2022-08-21T04:58:37;13.90;99.90
21563;DHT22;10942;47.894;11.424;2022-08-21T05:01:08;14.00;99.90
21563;DHT22;10942;47.894;11.424;2022-08-21T05:03:36;14.10;99.90
21563;DHT22;10942;47.894;11.424;2022-08-21T05:06:07;14.30;99.90
21563;DHT22;10942;47.894;11.424;2022-08-21T05:08:34;14.50;99.90
21563;DHT22;10942;47.894;11.424;2022-08-21T05:11:00;14.90;99.90
21563;DHT22;10942;47.894;11.424;2022-08-21T05:13:26;15.20;99.90
21563;DHT22;10942;47.894;11.424;2022-08-21T05:15:52;15.60;99.90
21563;DHT22;10942;47.894;11.424;2022-08-21T05:18:17;16.00;99.90
21563;DHT22;10942;47.894;11.424;2022-08-21T05:20:43;16.40;99.90
21563;DHT22;10942;47.894;11.424;2022-08-21T05:23:12;16.80;99.90
21563;DHT22;10942;47.894;11.424;2022-08-21T05:25:38;17.10;99.90
21563;DHT22;10942;47.894;11.424;2022-08-21T05:28:05;17.30;99.90
21563;DHT22;10942;47.894;11.424;2022-08-21T05:30:31;17.50;99.90
21563;DHT22;10942;47.894;11.424;2022-08-21T05:57:21;21.10;99.90
21563;DHT22;10942;47.894;11.424;2022-08-21T05:59:47;21.80;99.90
21563;DHT22;10942;47.894;11.424;2022-08-21T06:02:13;21.60;99.90
21563;DHT22;10942;47.894;11.424;2022-08-21T06:04:40;21.80;99.90
21563;DHT22;10942;47.894;11.424;2022-08-21T06:07:06;21.90;99.90
21563;DHT22;10942;47.894;11.424;2022-08-21T06:09:32;21.90;99.90
21563;DHT22;10942;47.894;11.424;2022-08-21T06:12:02;22.00;99.90
21563;DHT22;10942;47.894;11.424;2022-08-21T06:14:28;21.70;99.90
21563;DHT22;10942;47.894;11.424;2022-08-21T06:16:53;21.80;99.90
21563;DHT22;10942;47.894;11.424;2022-08-21T06:19:19;22.30;99.90
21563;DHT22;10942;47.894;11.424;2022-08-21T06:24:11;22.80;99.90
21563;DHT22;10942;47.894;11.424;2022-08-21T06:26:37;23.30;99.90
21563;DHT22;10942;47.894;11.424;2022-08-21T06:29:02;23.70;99.90
21563;DHT22;10942;47.894;11.424;2022-08-21T06:31:28;23.80;99.90
21563;DHT22;10942;47.894;11.424;2022-08-21T06:33:54;23.80;99.90
21563;DHT22;10942;47.894;11.424;2022-08-21T06:36:21;24.30;99.90
21563;DHT22;10942;47.894;11.424;2022-08-21T06:38:47;24.50;99.90
21563;DHT22;10942;47.894;11.424;2022-08-21T06:41:13;24.80;99.90
21563;DHT22;10942;47.894;11.424;2022-08-21T06:43:39;25.00;99.90
21563;DHT22;10942;47.894;11.424;2022-08-21T06:46:04;25.60;99.90
21563;DHT22;10942;47.894;11.424;2022-08-21T06:48:30;26.40;99.90
21563;DHT22;10942;47.894;11.424;2022-08-21T06:51:00;26.50;99.90
21563;DHT22;10942;47.894;11.424;2022-08-21T06:53:26;27.10;99.90
21563;DHT22;10942;47.894;11.424;2022-08-21T06:55:52;27.00;99.90
21563;DHT22;10942;47.894;11.424;2022-08-21T06:58:18;28.00;99.90
21563;DHT22;10942;47.894;11.424;2022-08-21T07:00:47;28.10;99.90
21563;DHT22;10942;47.894;11.424;2022-08-21T07:03:18;28.40;99.90
21563;DHT22;10942;47.894;11.424;2022-08-21T07:05:44;28.80;99.90
21563;DHT22;10942;47.894;11.424;2022-08-21T07:08:09;28.00;99.90
21563;DHT22;10942;47.894;11.424;2022-08-21T07:10:35;28.60;99.90
21563;DHT22;10942;47.894;11.424;2022-08-21T07:13:01;28.90;99.90
21563;DHT22;10942;47.894;11.424;2022-08-21T07:15:28;29.40;99.90
21563;DHT22;10942;47.894;11.424;2022-08-21T07:17:54;29.50;99.90
21563;DHT22;10942;47.894;11.424;2022-08-21T07:20:20;29.40;99.90
21563;DHT22;10942;47.894;11.424;2022-08-21T07:22:45;30.10;99.90
21563;DHT22;10942;47.894;11.424;2022-08-21T07:25:11;30.70;99.90
21563;DHT22;10942;47.894;11.424;2022-08-21T07:27:37;31.30;99.90
21563;DHT22;10942;47.894;11.424;2022-08-21T07:30:04;30.80;99.90
21563;DHT22;10942;47.894;11.424;2022-08-21T07:32:30;30.60;99.90
21563;DHT22;10942;47.894;11.424;2022-08-21T07:34:56;30.60;99.90
21563;DHT22;10942;47.894;11.424;2022-08-21T07:37:22;30.80;99.90
21563;DHT22;10942;47.894;11.424;2022-08-21T07:39:47;31.30;99.90
21563;DHT22;10942;47.894;11.424;2022-08-21T07:42:15;31.60;99.90
21563;DHT22;10942;47.894;11.424;2022-08-21T07:44:41;31.70;99.90
21563;DHT22;10942;47.894;11.424;2022-08-21T07:47:07;32.00;99.90
21563;DHT22;10942;47.894;11.424;2022-08-21T07:49:32;32.20;99.90
21563;DHT22;10942;47.894;11.424;2022-08-21T07:51:58;31.20;99.90
21563;DHT22;10942;47.894;11.424;2022-08-21T07:54:24;31.40;99.90
21563;DHT22;10942;47.894;11.424;2022-08-21T07:56:50;32.30;99.90
21563;DHT22;10942;47.894;11.424;2022-08-21T07:59:15;32.80;99.90
21563;DHT22;10942;47.894;11.424;2022-08-21T08:01:41;32.50;99.90
21563;DHT22;10942;47.894;11.424;2022-08-21T08:04:07;32.80;99.90
21563;DHT22;10942;47.894;11.424;2022-08-21T08:06:32;33.10;99.90
21563;DHT22;10942;47.894;11.424;2022-08-21T08:08:58;33.20;99.90
21563;DHT22;10942;47.894;11.424;2022-08-21T08:11:24;33.50;99.90
21563;DHT22;10942;47.894;11.424;2022-08-21T08:13:51;33.20;99.90
21563;DHT22;10942;47.894;11.424;2022-08-21T08:16:18;33.20;99.90
21563;DHT22;10942;47.894;11.424;2022-08-21T08:18:44;33.30;99.90
21563;DHT22;10942;47.894;11.424;2022-08-21T08:21:12;33.50;99.90
21563;DHT22;10942;47.894;11.424;2022-08-21T08:23:38;33.90;99.90
21563;DHT22;10942;47.894;11.424;2022-08-21T08:26:04;33.30;99.90
21563;DHT22;10942;47.894;11.424;2022-08-21T08:28:31;33.50;99.90
21563;DHT22;10942;47.894;11.424;2022-08-21T08:30:58;33.30;99.90
21563;DHT22;10942;47.894;11.424;2022-08-21T08:33:24;32.00;99.90
21563;DHT22;10942;47.894;11.424;2022-08-21T08:35:50;32.80;99.90
21563;DHT22;10942;47.894;11.424;2022-08-21T08:38:19;33.80;99.90
21563;DHT22;10942;47.894;11.424;2022-08-21T08:41:11;33.80;99.90
21563;DHT22;10942;47.894;11.424;2022-08-21T08:43:40;32.70;99.90
21563;DHT22;10942;47.894;11.424;2022-08-21T08:46:13;32.20;99.90
21563;DHT22;10942;47.894;11.424;2022-08-21T08:49:08;33.20;99.90
21563;DHT22;10942;47.894;11.424;2022-08-21T08:51:52;33.60;99.90
21563;DHT22;10942;47.894;11.424;2022-08-21T08:54:45;34.10;99.90
21563;DHT22;10942;47.894;11.424;2022-08-21T08:57:19;34.70;99.90
21563;DHT22;10942;47.894;11.424;2022-08-21T08:59:48;33.30;99.90
21563;DHT22;10942;47.894;11.424;2022-08-21T09:02:16;33.70;99.90
21563;DHT22;10942;47.894;11.424;2022-08-21T09:04:42;34.10;99.90
21563;DHT22;10942;47.894;11.424;2022-08-21T09:09:42;35.50;99.90
21563;DHT22;10942;47.894;11.424;2022-08-21T09:50:34;36.60;99.90
21563;DHT22;10942;47.894;11.424;2022-08-21T09:53:00;36.20;94.10
21563;DHT22;10942;47.894;11.424;2022-08-21T09:55:33;35.20;82.30
21563;DHT22;10942;47.894;11.424;2022-08-21T10:08:16;33.20;99.90
21563;DHT22;10942;47.894;11.424;2022-08-21T10:10:42;33.10;99.90
21563;DHT22;10942;47.894;11.424;2022-08-21T10:15:51;32.00;86.30
21563;DHT22;10942;47.894;11.424;2022-08-21T10:18:30;31.60;90.20
21563;DHT22;10942;47.894;11.424;2022-08-21T10:26:14;30.70;86.60
21563;DHT22;10942;47.894;11.424;2022-08-21T10:31:44;28.80;91.10
21563;DHT22;10942;47.894;11.424;2022-08-21T10:37:17;27.20;93.40
21563;DHT22;10942;47.894;11.424;2022-08-21T14:18:53;25.30;99.90
21563;DHT22;10942;47.894;11.424;2022-08-21T14:21:38;25.30;99.90
21563;DHT22;10942;47.894;11.424;2022-08-21T14:24:09;25.20;95.80
21563;DHT22;10942;47.894;11.424;2022-08-21T14:26:48;25.10;92.70
21563;DHT22;10942;47.894;11.424;2022-08-21T14:29:16;24.90;92.60
21563;DHT22;10942;47.894;11.424;2022-08-21T14:31:48;24.90;93.20
21563;DHT22;10942;47.894;11.424;2022-08-21T14:34:14;24.70;93.00
21563;DHT22;10942;47.894;11.424;2022-08-21T14:36:42;24.60;92.90
21563;DHT22;10942;47.894;11.424;2022-08-21T14:39:08;24.60;92.30
21563;DHT22;10942;47.894;11.424;2022-08-21T14:41:35;24.50;92.80
21563;DHT22;10942;47.894;11.424;2022-08-21T14:44:02;24.60;93.40
21563;DHT22;10942;47.894;11.424;2022-08-21T14:46:30;24.70;94.20
21563;DHT22;10942;47.894;11.424;2022-08-21T14:48:57;24.70;95.10
21563;DHT22;10942;47.894;11.424;2022-08-21T14:51:24;24.60;93.80
21563;DHT22;10942;47.894;11.424;2022-08-21T14:53:49;24.50;94.50
21563;DHT22;10942;47.894;11.424;2022-08-21T14:56:15;24.50;94.10
21563;DHT22;10942;47.894;11.424;2022-08-21T14:58:44;24.40;94.10
21563;DHT22;10942;47.894;11.424;2022-08-21T15:01:13;24.50;93.40
21563;DHT22;10942;47.894;11.424;2022-08-21T15:03:39;24.50;93.60
21563;DHT22;10942;47.894;11.424;2022-08-21T15:06:06;24.50;93.70
21563;DHT22;10942;47.894;11.424;2022-08-21T15:08:32;24.50;94.40
21563;DHT22;10942;47.894;11.424;2022-08-21T15:10:59;24.60;94.80
21563;DHT22;10942;47.894;11.424;2022-08-21T15:13:26;24.60;94.00
21563;DHT22;10942;47.894;11.424;2022-08-21T15:15:52;24.70;94.30
21563;DHT22;10942;47.894;11.424;2022-08-21T15:18:19;24.70;94.10
21563;DHT22;10942;47.894;11.424;2022-08-21T15:20:45;24.70;93.60
21563;DHT22;10942;47.894;11.424;2022-08-21T15:23:12;24.80;93.70
21563;DHT22;10942;47.894;11.424;2022-08-21T15:25:41;24.80;92.80
21563;DHT22;10942;47.894;11.424;2022-08-21T15:28:07;24.70;93.60
21563;DHT22;10942;47.894;11.424;2022-08-21T15:30:34;24.80;94.10
21563;DHT22;10942;47.894;11.424;2022-08-21T15:33:00;24.80;93.60
21563;DHT22;10942;47.894;11.424;2022-08-21T15:35:26;24.80;94.10
21563;DHT22;10942;47.894;11.424;2022-08-21T15:37:51;24.80;94.30
21563;DHT22;10942;47.894;11.424;2022-08-21T15:40:17;24.80;94.40
21563;DHT22;10942;47.894;11.424;2022-08-21T15:42:43;24.80;94.10
21563;DHT22;10942;47.894;11.424;2022-08-21T15:45:11;24.70;93.60
21563;DHT22;10942;47.894;11.424;2022-08-21T15:47:38;24.80;94.90
21563;DHT22;10942;47.894;11.424;2022-08-21T15:50:06;24.70;93.80
21563;DHT22;10942;47.894;11.424;2022-08-21T15:52:33;24.70;94.00
21563;DHT22;10942;47.894;11.424;2022-08-21T15:54:59;24.70;93.80
21563;DHT22;10942;47.894;11.424;2022-08-21T15:57:26;24.70;94.00
21563;DHT22;10942;47.894;11.424;2022-08-21T15:59:57;24.70;94.10
21563;DHT22;10942;47.894;11.424;2022-08-21T16:02:28;24.70;94.30
21563;DHT22;10942;47.894;11.424;2022-08-21T16:04:54;24.60;94.80
21563;DHT22;10942;47.894;11.424;2022-08-21T16:07:20;24.70;94.60
21563;DHT22;10942;47.894;11.424;2022-08-21T16:09:46;24.60;94.40
21563;DHT22;10942;47.894;11.424;2022-08-21T16:12:19;24.50;94.70
21563;DHT22;10942;47.894;11.424;2022-08-21T16:14:46;24.50;94.90
21563;DHT22;10942;47.894;11.424;2022-08-21T16:17:12;24.50;95.00
21563;DHT22;10942;47.894;11.424;2022-08-21T16:19:38;24.40;94.50
21563;DHT22;10942;47.894;11.424;2022-08-21T16:22:04;24.20;95.30
21563;DHT22;10942;47.894;11.424;2022-08-21T16:24:30;24.10;95.50
21563;DHT22;10942;47.894;11.424;2022-08-21T16:26:56;24.20;94.90
21563;DHT22;10942;47.894;11.424;2022-08-21T16:29:22;24.10;95.30
21563;DHT22;10942;47.894;11.424;2022-08-21T16:31:48;24.20;94.60
21563;DHT22;10942;47.894;11.424;2022-08-21T16:34:17;24.10;94.40
21563;DHT22;10942;47.894;11.424;2022-08-21T16:36:45;24.10;94.80
21563;DHT22;10942;47.894;11.424;2022-08-21T16:39:11;24.00;95.00
21563;DHT22;10942;47.894;11.424;2022-08-21T16:41:37;23.90;95.40
21563;DHT22;10942;47.894;11.424;2022-08-21T16:44:04;23.80;95.40
21563;DHT22;10942;47.894;11.424;2022-08-21T16:46:34;23.70;95.70
21563;DHT22;10942;47.894;11.424;2022-08-21T16:49:01;23.80;95.80
21563;DHT22;10942;47.894;11.424;2022-08-21T16:51:27;23.70;96.00
21563;DHT22;10942;47.894;11.424;2022-08-21T20:10:57;19.40;99.90
21563;DHT22;10942;47.894;11.424;2022-08-21T20:13:24;19.30;99.90
21563;DHT22;10942;47.894;11.424;2022-08-21T20:15:51;19.00;99.90
21563;DHT22;10942;47.894;11.424;2022-08-21T20:18:18;18.50;99.90
21563;DHT22;10942;47.894;11.424;2022-08-21T20:20:44;18.40;99.90
21563;DHT22;10942;47.894;11.424;2022-08-21T20:23:11;18.40;99.90
21563;DHT22;10942;47.894;11.424;2022-08-21T20:25:37;18.40;99.90
21563;DHT22;10942;47.894;11.424;2022-08-21T20:28:04;18.40;99.90
21563;DHT22;10942;47.894;11.424;2022-08-21T20:30:30;18.40;99.90
21563;DHT22;10942;47.894;11.424;2022-08-21T20:32:56;18.30;99.90
21563;DHT22;10942;47.894;11.424;2022-08-21T20:35:22;18.30;99.90
21563;DHT22;10942;47.894;11.424;2022-08-21T20:37:48;18.20;99.90
21563;DHT22;10942;47.894;11.424;2022-08-21T20:40:14;18.20;99.90
21563;DHT22;10942;47.894;11.424;2022-08-21T20:42:44;18.10;99.90
21563;DHT22;10942;47.894;11.424;2022-08-21T20:45:18;18.10;99.90
21563;DHT22;10942;47.894;11.424;2022-08-21T20:47:44;18.00;99.90
21563;DHT22;10942;47.894;11.424;2022-08-21T20:50:12;18.00;99.90
21563;DHT22;10942;47.894;11.424;2022-08-21T20:52:42;18.00;99.90
21563;DHT22;10942;47.894;11.424;2022-08-21T20:55:12;17.90;99.90
21563;DHT22;10942;47.894;11.424;2022-08-21T20:57:47;17.90;99.90
21563;DHT22;10942;47.894;11.424;2022-08-21T21:00:17;17.90;99.90
21563;DHT22;10942;47.894;11.424;2022-08-21T21:05:27;17.80;99.90
21563;DHT22;10942;47.894;11.424;2022-08-21T21:08:16;17.80;99.90
21563;DHT22;10942;47.894;11.424;2022-08-21T21:10:54;17.70;99.90
21563;DHT22;10942;47.894;11.424;2022-08-21T21:13:34;17.70;99.90
21563;DHT22;10942;47.894;11.424;2022-08-21T21:16:13;17.60;99.90
21563;DHT22;10942;47.894;11.424;2022-08-21T21:18:40;17.60;99.90
21563;DHT22;10942;47.894;11.424;2022-08-21T21:21:27;17.50;99.90
21563;DHT22;10942;47.894;11.424;2022-08-21T21:24:20;17.40;99.90
21563;DHT22;10942;47.894;11.424;2022-08-21T21:29:46;17.40;99.90
21563;DHT22;10942;47.894;11.424;2022-08-21T21:32:14;17.30;99.90
21563;DHT22;10942;47.894;11.424;2022-08-21T21:34:42;17.20;99.90
21563;DHT22;10942;47.894;11.424;2022-08-21T21:37:15;17.20;99.90
21563;DHT22;10942;47.894;11.424;2022-08-21T21:42:45;17.10;99.90
21563;DHT22;10942;47.894;11.424;2022-08-21T21:45:22;17.10;99.90
21563;DHT22;10942;47.894;11.424;2022-08-21T21:56:26;16.90;99.90
21563;DHT22;10942;47.894;11.424;2022-08-21T22:04:45;16.80;99.90
21563;DHT22;10942;47.894;11.424;2022-08-21T22:07:25;16.70;99.90
21563;DHT22;10942;47.894;11.424;2022-08-21T22:13:03;16.70;99.90
21563;DHT22;10942;47.894;11.424;2022-08-21T22:15:33;16.70;99.90
21563;DHT22;10942;47.894;11.424;2022-08-21T22:18:06;16.60;99.90
21563;DHT22;10942;47.894;11.424;2022-08-21T22:20:43;16.60;99.90
21563;DHT22;10942;47.894;11.424;2022-08-21T22:23:22;16.60;99.90
21563;DHT22;10942;47.894;11.424;2022-08-21T22:25:51;16.50;99.90
21563;DHT22;10942;47.894;11.424;2022-08-21T22:28:22;16.50;99.90
21563;DHT22;10942;47.894;11.424;2022-08-21T22:33:36;16.40;99.90
21563;DHT22;10942;47.894;11.424;2022-08-21T22:36:14;16.40;99.90
21563;DHT22;10942;47.894;11.424;2022-08-21T22:38:41;16.40;99.90
21563;DHT22;10942;47.894;11.424;2022-08-21T22:41:25;16.30;99.90
21563;DHT22;10942;47.894;11.424;2022-08-21T22:44:03;16.30;99.90
21563;DHT22;10942;47.894;11.424;2022-08-21T22:46:42;16.30;99.90
21563;DHT22;10942;47.894;11.424;2022-08-21T22:49:31;16.20;99.90
21563;DHT22;10942;47.894;11.424;2022-08-21T22:52:20;16.20;99.90
21563;DHT22;10942;47.894;11.424;2022-08-21T22:54:47;16.10;99.90
21563;DHT22;10942;47.894;11.424;2022-08-21T22:57:34;16.10;99.90
21563;DHT22;10942;47.894;11.424;2022-08-21T23:02:41;16.00;99.90
21563;DHT22;10942;47.894;11.424;2022-08-21T23:05:32;16.00;99.90
21563;DHT22;10942;47.894;11.424;2022-08-21T23:08:00;15.90;99.90
21563;DHT22;10942;47.894;11.424;2022-08-21T23:10:39;15.90;99.90
21563;DHT22;10942;47.894;11.424;2022-08-21T23:13:08;15.90;99.90
21563;DHT22;10942;47.894;11.424;2022-08-21T23:28:45;15.90;99.90
21563;DHT22;10942;47.894;11.424;2022-08-21T23:31:42;15.60;99.90
21563;DHT22;10942;47.894;11.424;2022-08-21T23:34:20;15.60;99.90
21563;DHT22;10942;47.894;11.424;2022-08-21T23:37:02;15.60;99.90
21563;DHT22;10942;47.894;11.424;2022-08-21T23:40:15;15.50;99.90
21563;DHT22;10942;47.894;11.424;2022-08-21T23:45:45;15.50;99.90
21563;DHT22;10942;47.894;11.424;2022-08-21T23:51:16;15.40;99.90
21563;DHT22;10942;47.894;11.424;2022-08-21T23:53:55;15.40;99.90
